sensor_id;sensor_type;location;lat;lon;timestamp;P1;durP1;ratioP1;P2;durP2;ratioP2
5543;SDS011;2795;47.652;13.128;2022-12-18T00:02:16;11.73;;;5.97;;
5543;SDS011;2795;47.652;13.128;2022-12-18T00:04:44;15.87;;;5.83;;
5543;SDS011;2795;47.652;13.128;2022-12-18T00:07:11;20.33;;;6.73;;
5543;SDS011;2795;47.652;13.128;2022-12-18T00:09:37;17.43;;;5.83;;
5543;SDS011;2795;47.652;13.128;2022-12-18T00:12:06;22.10;;;6.80;;
5543;SDS011;2795;47.652;13.128;2022-12-18T00:14:40;14.70;;;6.43;;
5543;SDS011;2795;47.652;13.128;2022-12-18T00:17:13;17.57;;;6.60;;
5543;SDS011;2795;47.652;13.128;2022-12-18T00:19:42;14.90;;;6.20;;
5543;SDS011;2795;47.652;13.128;2022-12-18T00:22:10;16.23;;;6.53;;
5543;SDS011;2795;47.652;13.128;2022-12-18T00:24:37;17.90;;;7.40;;
5543;SDS011;2795;47.652;13.128;2022-12-18T00:27:03;21.10;;;6.53;;
5543;SDS011;2795;47.652;13.128;2022-12-18T00:29:30;17.77;;;6.73;;
5543;SDS011;2795;47.652;13.128;2022-12-18T00:31:57;15.40;;;6.83;;
5543;SDS011;2795;47.652;13.128;2022-12-18T00:34:24;18.60;;;7.40;;
5543;SDS011;2795;47.652;13.128;2022-12-18T00:36:53;13.63;;;6.30;;
5543;SDS011;2795;47.652;13.128;2022-12-18T00:39:21;15.67;;;6.17;;
5543;SDS011;2795;47.652;13.128;2022-12-18T00:41:48;14.80;;;6.53;;
5543;SDS011;2795;47.652;13.128;2022-12-18T00:44:33;13.57;;;6.13;;
5543;SDS011;2795;47.652;13.128;2022-12-18T00:47:01;19.27;;;6.70;;
5543;SDS011;2795;47.652;13.128;2022-12-18T00:49:28;23.77;;;7.37;;
5543;SDS011;2795;47.652;13.128;2022-12-18T00:51:55;21.10;;;8.03;;
5543;SDS011;2795;47.652;13.128;2022-12-18T00:54:22;16.83;;;6.17;;
5543;SDS011;2795;47.652;13.128;2022-12-18T00:56:50;13.30;;;6.30;;
5543;SDS011;2795;47.652;13.128;2022-12-18T00:59:18;17.20;;;6.60;;
5543;SDS011;2795;47.652;13.128;2022-12-18T01:01:45;16.90;;;6.87;;
5543;SDS011;2795;47.652;13.128;2022-12-18T01:04:13;16.83;;;7.60;;
5543;SDS011;2795;47.652;13.128;2022-12-18T01:06:43;16.00;;;7.37;;
5543;SDS011;2795;47.652;13.128;2022-12-18T01:09:10;13.60;;;7.27;;
5543;SDS011;2795;47.652;13.128;2022-12-18T01:11:38;20.03;;;7.37;;
5543;SDS011;2795;47.652;13.128;2022-12-18T01:14:06;14.33;;;6.90;;
5543;SDS011;2795;47.652;13.128;2022-12-18T01:16:33;14.07;;;5.90;;
5543;SDS011;2795;47.652;13.128;2022-12-18T01:19:00;16.50;;;6.83;;
5543;SDS011;2795;47.652;13.128;2022-12-18T01:21:27;13.43;;;6.17;;
5543;SDS011;2795;47.652;13.128;2022-12-18T01:23:55;10.20;;;5.40;;
5543;SDS011;2795;47.652;13.128;2022-12-18T01:26:24;17.43;;;7.17;;
5543;SDS011;2795;47.652;13.128;2022-12-18T01:28:51;12.80;;;5.53;;
5543;SDS011;2795;47.652;13.128;2022-12-18T01:31:19;15.43;;;6.20;;
5543;SDS011;2795;47.652;13.128;2022-12-18T01:33:49;15.83;;;5.60;;
5543;SDS011;2795;47.652;13.128;2022-12-18T01:36:27;19.00;;;6.60;;
5543;SDS011;2795;47.652;13.128;2022-12-18T01:38:55;10.60;;;5.30;;
5543;SDS011;2795;47.652;13.128;2022-12-18T01:41:25;11.93;;;5.50;;
5543;SDS011;2795;47.652;13.128;2022-12-18T01:50:13;12.57;;;5.03;;
5543;SDS011;2795;47.652;13.128;2022-12-18T01:52:46;17.83;;;5.93;;
5543;SDS011;2795;47.652;13.128;2022-12-18T01:55:19;9.60;;;4.97;;
5543;SDS011;2795;47.652;13.128;2022-12-18T01:57:47;9.77;;;4.97;;
5543;SDS011;2795;47.652;13.128;2022-12-18T02:00:20;15.77;;;5.93;;
5543;SDS011;2795;47.652;13.128;2022-12-18T02:02:47;9.90;;;5.03;;
5543;SDS011;2795;47.652;13.128;2022-12-18T02:05:16;8.43;;;4.63;;
5543;SDS011;2795;47.652;13.128;2022-12-18T02:07:51;10.47;;;5.77;;
5543;SDS011;2795;47.652;13.128;2022-12-18T02:10:57;12.77;;;4.67;;
5543;SDS011;2795;47.652;13.128;2022-12-18T02:16:07;25.93;;;7.60;;
5543;SDS011;2795;47.652;13.128;2022-12-18T02:18:50;11.60;;;6.03;;
5543;SDS011;2795;47.652;13.128;2022-12-18T02:26:57;9.10;;;5.77;;
5543;SDS011;2795;47.652;13.128;2022-12-18T02:29:29;11.77;;;6.80;;
5543;SDS011;2795;47.652;13.128;2022-12-18T02:32:33;11.13;;;5.00;;
5543;SDS011;2795;47.652;13.128;2022-12-18T02:35:03;10.77;;;4.67;;
5543;SDS011;2795;47.652;13.128;2022-12-18T02:37:51;9.43;;;5.00;;
5543;SDS011;2795;47.652;13.128;2022-12-18T02:40:23;9.40;;;5.33;;
5543;SDS011;2795;47.652;13.128;2022-12-18T02:42:50;9.43;;;4.60;;
5543;SDS011;2795;47.652;13.128;2022-12-18T02:45:18;10.33;;;4.80;;
5543;SDS011;2795;47.652;13.128;2022-12-18T02:47:48;7.10;;;4.03;;
5543;SDS011;2795;47.652;13.128;2022-12-18T02:50:22;6.63;;;4.63;;
5543;SDS011;2795;47.652;13.128;2022-12-18T03:01:55;12.90;;;5.10;;
5543;SDS011;2795;47.652;13.128;2022-12-18T03:04:34;5.37;;;3.73;;
5543;SDS011;2795;47.652;13.128;2022-12-18T03:07:05;8.47;;;4.50;;
5543;SDS011;2795;47.652;13.128;2022-12-18T03:09:36;12.60;;;5.17;;
5543;SDS011;2795;47.652;13.128;2022-12-18T03:12:09;10.53;;;5.37;;
5543;SDS011;2795;47.652;13.128;2022-12-18T03:14:57;9.20;;;4.90;;
5543;SDS011;2795;47.652;13.128;2022-12-18T03:17:32;9.00;;;4.20;;
5543;SDS011;2795;47.652;13.128;2022-12-18T03:20:06;7.70;;;3.80;;
5543;SDS011;2795;47.652;13.128;2022-12-18T03:22:36;13.90;;;5.40;;
5543;SDS011;2795;47.652;13.128;2022-12-18T03:25:04;15.33;;;5.03;;
5543;SDS011;2795;47.652;13.128;2022-12-18T03:27:33;13.50;;;6.73;;
5543;SDS011;2795;47.652;13.128;2022-12-18T03:30:04;15.87;;;6.90;;
5543;SDS011;2795;47.652;13.128;2022-12-18T03:32:44;10.80;;;6.40;;
5543;SDS011;2795;47.652;13.128;2022-12-18T03:35:18;14.90;;;5.83;;
5543;SDS011;2795;47.652;13.128;2022-12-18T03:37:48;10.20;;;4.00;;
5543;SDS011;2795;47.652;13.128;2022-12-18T03:40:15;12.63;;;4.40;;
5543;SDS011;2795;47.652;13.128;2022-12-18T03:45:20;14.60;;;5.20;;
5543;SDS011;2795;47.652;13.128;2022-12-18T03:50:29;6.57;;;4.50;;
5543;SDS011;2795;47.652;13.128;2022-12-18T03:53:01;5.63;;;4.13;;
5543;SDS011;2795;47.652;13.128;2022-12-18T03:55:38;8.23;;;4.33;;
5543;SDS011;2795;47.652;13.128;2022-12-18T03:58:05;8.00;;;4.10;;
5543;SDS011;2795;47.652;13.128;2022-12-18T04:00:34;7.60;;;3.43;;
5543;SDS011;2795;47.652;13.128;2022-12-18T04:03:06;10.77;;;4.50;;
5543;SDS011;2795;47.652;13.128;2022-12-18T04:05:34;20.90;;;5.63;;
5543;SDS011;2795;47.652;13.128;2022-12-18T04:08:03;7.30;;;4.80;;
5543;SDS011;2795;47.652;13.128;2022-12-18T04:10:30;5.27;;;3.70;;
5543;SDS011;2795;47.652;13.128;2022-12-18T04:13:06;5.73;;;3.50;;
5543;SDS011;2795;47.652;13.128;2022-12-18T04:15:35;13.23;;;4.93;;
5543;SDS011;2795;47.652;13.128;2022-12-18T04:18:03;10.23;;;4.83;;
5543;SDS011;2795;47.652;13.128;2022-12-18T04:20:31;6.83;;;3.50;;
5543;SDS011;2795;47.652;13.128;2022-12-18T04:22:57;8.80;;;4.20;;
5543;SDS011;2795;47.652;13.128;2022-12-18T04:25:24;7.43;;;4.10;;
5543;SDS011;2795;47.652;13.128;2022-12-18T04:27:51;8.60;;;4.00;;
5543;SDS011;2795;47.652;13.128;2022-12-18T04:30:17;11.40;;;4.30;;
5543;SDS011;2795;47.652;13.128;2022-12-18T04:32:44;11.23;;;4.13;;
5543;SDS011;2795;47.652;13.128;2022-12-18T04:35:20;5.97;;;3.87;;
5543;SDS011;2795;47.652;13.128;2022-12-18T04:37:47;6.53;;;3.70;;
5543;SDS011;2795;47.652;13.128;2022-12-18T04:40:16;8.63;;;3.80;;
5543;SDS011;2795;47.652;13.128;2022-12-18T04:42:43;6.90;;;3.60;;
5543;SDS011;2795;47.652;13.128;2022-12-18T04:45:10;11.23;;;4.43;;
5543;SDS011;2795;47.652;13.128;2022-12-18T04:47:37;6.93;;;3.13;;
5543;SDS011;2795;47.652;13.128;2022-12-18T04:50:05;6.90;;;4.37;;
5543;SDS011;2795;47.652;13.128;2022-12-18T04:52:32;8.27;;;3.30;;
5543;SDS011;2795;47.652;13.128;2022-12-18T04:55:00;8.13;;;3.20;;
5543;SDS011;2795;47.652;13.128;2022-12-18T04:57:26;5.23;;;3.60;;
5543;SDS011;2795;47.652;13.128;2022-12-18T04:59:53;3.50;;;3.20;;
5543;SDS011;2795;47.652;13.128;2022-12-18T05:02:20;7.80;;;3.83;;
5543;SDS011;2795;47.652;13.128;2022-12-18T05:04:48;11.27;;;3.83;;
5543;SDS011;2795;47.652;13.128;2022-12-18T05:07:14;4.97;;;3.00;;
5543;SDS011;2795;47.652;13.128;2022-12-18T05:09:41;7.67;;;3.50;;
5543;SDS011;2795;47.652;13.128;2022-12-18T05:12:09;13.33;;;4.60;;
5543;SDS011;2795;47.652;13.128;2022-12-18T05:14:36;5.00;;;3.40;;
5543;SDS011;2795;47.652;13.128;2022-12-18T05:17:04;3.73;;;2.77;;
5543;SDS011;2795;47.652;13.128;2022-12-18T05:19:30;3.17;;;2.63;;
5543;SDS011;2795;47.652;13.128;2022-12-18T05:21:57;3.90;;;2.83;;
5543;SDS011;2795;47.652;13.128;2022-12-18T05:24:27;7.73;;;3.30;;
5543;SDS011;2795;47.652;13.128;2022-12-18T05:26:53;5.57;;;3.30;;
5543;SDS011;2795;47.652;13.128;2022-12-18T05:29:21;5.87;;;3.60;;
5543;SDS011;2795;47.652;13.128;2022-12-18T05:31:48;9.77;;;3.10;;
5543;SDS011;2795;47.652;13.128;2022-12-18T05:34:19;8.97;;;3.67;;
5543;SDS011;2795;47.652;13.128;2022-12-18T05:36:48;9.27;;;3.73;;
5543;SDS011;2795;47.652;13.128;2022-12-18T05:39:19;7.30;;;3.20;;
5543;SDS011;2795;47.652;13.128;2022-12-18T05:41:46;11.57;;;3.70;;
5543;SDS011;2795;47.652;13.128;2022-12-18T05:44:14;5.77;;;2.83;;
5543;SDS011;2795;47.652;13.128;2022-12-18T05:46:45;3.23;;;2.90;;
5543;SDS011;2795;47.652;13.128;2022-12-18T05:49:11;11.53;;;4.30;;
5543;SDS011;2795;47.652;13.128;2022-12-18T05:51:38;9.33;;;3.80;;
5543;SDS011;2795;47.652;13.128;2022-12-18T05:54:06;8.40;;;3.80;;
5543;SDS011;2795;47.652;13.128;2022-12-18T05:56:33;11.37;;;4.37;;
5543;SDS011;2795;47.652;13.128;2022-12-18T05:59:00;11.77;;;4.57;;
5543;SDS011;2795;47.652;13.128;2022-12-18T06:01:26;9.80;;;4.80;;
5543;SDS011;2795;47.652;13.128;2022-12-18T06:03:53;9.47;;;4.30;;
5543;SDS011;2795;47.652;13.128;2022-12-18T06:06:22;8.50;;;4.20;;
5543;SDS011;2795;47.652;13.128;2022-12-18T06:08:52;8.37;;;4.00;;
5543;SDS011;2795;47.652;13.128;2022-12-18T06:11:20;9.60;;;4.87;;
5543;SDS011;2795;47.652;13.128;2022-12-18T06:13:51;13.20;;;6.20;;
5543;SDS011;2795;47.652;13.128;2022-12-18T06:16:24;15.60;;;6.17;;
5543;SDS011;2795;47.652;13.128;2022-12-18T06:18:52;17.30;;;6.20;;
5543;SDS011;2795;47.652;13.128;2022-12-18T06:21:19;12.20;;;5.10;;
5543;SDS011;2795;47.652;13.128;2022-12-18T06:23:46;14.60;;;6.37;;
5543;SDS011;2795;47.652;13.128;2022-12-18T06:26:14;19.90;;;6.27;;
5543;SDS011;2795;47.652;13.128;2022-12-18T06:28:42;16.57;;;6.77;;
5543;SDS011;2795;47.652;13.128;2022-12-18T06:31:09;9.33;;;5.30;;
5543;SDS011;2795;47.652;13.128;2022-12-18T06:33:38;11.90;;;5.67;;
5543;SDS011;2795;47.652;13.128;2022-12-18T06:36:07;15.40;;;6.60;;
5543;SDS011;2795;47.652;13.128;2022-12-18T06:38:40;15.33;;;6.90;;
5543;SDS011;2795;47.652;13.128;2022-12-18T06:41:16;16.33;;;7.83;;
5543;SDS011;2795;47.652;13.128;2022-12-18T06:43:44;19.10;;;7.57;;
5543;SDS011;2795;47.652;13.128;2022-12-18T06:46:11;19.77;;;7.00;;
5543;SDS011;2795;47.652;13.128;2022-12-18T06:48:38;13.97;;;6.37;;
5543;SDS011;2795;47.652;13.128;2022-12-18T06:51:05;22.87;;;7.90;;
5543;SDS011;2795;47.652;13.128;2022-12-18T06:53:32;22.13;;;9.80;;
5543;SDS011;2795;47.652;13.128;2022-12-18T06:56:00;20.30;;;8.60;;
5543;SDS011;2795;47.652;13.128;2022-12-18T06:58:35;26.27;;;11.50;;
5543;SDS011;2795;47.652;13.128;2022-12-18T07:01:04;17.60;;;8.10;;
5543;SDS011;2795;47.652;13.128;2022-12-18T07:03:33;16.23;;;7.50;;
5543;SDS011;2795;47.652;13.128;2022-12-18T07:06:00;18.77;;;6.83;;
5543;SDS011;2795;47.652;13.128;2022-12-18T07:08:29;12.73;;;6.57;;
5543;SDS011;2795;47.652;13.128;2022-12-18T07:10:57;15.47;;;6.90;;
5543;SDS011;2795;47.652;13.128;2022-12-18T07:13:24;21.03;;;8.50;;
5543;SDS011;2795;47.652;13.128;2022-12-18T07:15:51;17.37;;;8.07;;
5543;SDS011;2795;47.652;13.128;2022-12-18T07:18:18;21.27;;;9.27;;
5543;SDS011;2795;47.652;13.128;2022-12-18T07:20:46;21.13;;;9.50;;
5543;SDS011;2795;47.652;13.128;2022-12-18T07:23:14;19.43;;;9.10;;
5543;SDS011;2795;47.652;13.128;2022-12-18T07:25:40;27.80;;;7.47;;
5543;SDS011;2795;47.652;13.128;2022-12-18T07:28:07;19.10;;;8.53;;
5543;SDS011;2795;47.652;13.128;2022-12-18T07:30:42;28.53;;;12.00;;
5543;SDS011;2795;47.652;13.128;2022-12-18T07:33:10;23.90;;;8.43;;
5543;SDS011;2795;47.652;13.128;2022-12-18T07:35:38;31.03;;;11.47;;
5543;SDS011;2795;47.652;13.128;2022-12-18T07:38:05;25.60;;;9.13;;
5543;SDS011;2795;47.652;13.128;2022-12-18T07:40:32;17.43;;;7.90;;
5543;SDS011;2795;47.652;13.128;2022-12-18T07:42:59;23.63;;;8.83;;
5543;SDS011;2795;47.652;13.128;2022-12-18T07:45:25;29.43;;;11.17;;
5543;SDS011;2795;47.652;13.128;2022-12-18T07:47:55;27.40;;;10.37;;
5543;SDS011;2795;47.652;13.128;2022-12-18T07:50:21;26.90;;;11.00;;
5543;SDS011;2795;47.652;13.128;2022-12-18T07:52:51;26.70;;;10.00;;
5543;SDS011;2795;47.652;13.128;2022-12-18T07:55:18;20.63;;;10.00;;
5543;SDS011;2795;47.652;13.128;2022-12-18T07:57:44;25.90;;;11.47;;
5543;SDS011;2795;47.652;13.128;2022-12-18T08:00:26;40.77;;;14.20;;
5543;SDS011;2795;47.652;13.128;2022-12-18T08:02:53;25.70;;;9.47;;
5543;SDS011;2795;47.652;13.128;2022-12-18T08:05:20;30.90;;;12.23;;
5543;SDS011;2795;47.652;13.128;2022-12-18T08:07:48;28.87;;;11.23;;
5543;SDS011;2795;47.652;13.128;2022-12-18T08:10:15;31.03;;;11.43;;
5543;SDS011;2795;47.652;13.128;2022-12-18T08:12:42;28.47;;;10.70;;
5543;SDS011;2795;47.652;13.128;2022-12-18T08:15:09;22.93;;;10.67;;
5543;SDS011;2795;47.652;13.128;2022-12-18T08:17:37;21.30;;;10.70;;
5543;SDS011;2795;47.652;13.128;2022-12-18T08:20:07;31.03;;;14.57;;
5543;SDS011;2795;47.652;13.128;2022-12-18T08:22:38;34.90;;;13.23;;
5543;SDS011;2795;47.652;13.128;2022-12-18T08:25:05;29.87;;;11.90;;
5543;SDS011;2795;47.652;13.128;2022-12-18T08:27:33;25.67;;;11.53;;
5543;SDS011;2795;47.652;13.128;2022-12-18T08:30:02;23.77;;;10.60;;
5543;SDS011;2795;47.652;13.128;2022-12-18T08:32:30;25.67;;;11.80;;
5543;SDS011;2795;47.652;13.128;2022-12-18T08:35:02;28.67;;;11.13;;
5543;SDS011;2795;47.652;13.128;2022-12-18T08:37:29;47.93;;;14.13;;
5543;SDS011;2795;47.652;13.128;2022-12-18T08:39:56;30.53;;;11.47;;
5543;SDS011;2795;47.652;13.128;2022-12-18T08:42:22;30.00;;;11.30;;
5543;SDS011;2795;47.652;13.128;2022-12-18T08:45:09;43.23;;;16.90;;
5543;SDS011;2795;47.652;13.128;2022-12-18T08:47:35;43.77;;;15.40;;
5543;SDS011;2795;47.652;13.128;2022-12-18T08:50:02;45.10;;;15.90;;
5543;SDS011;2795;47.652;13.128;2022-12-18T08:52:31;41.07;;;14.20;;
5543;SDS011;2795;47.652;13.128;2022-12-18T08:55:00;60.10;;;20.60;;
5543;SDS011;2795;47.652;13.128;2022-12-18T08:57:27;53.30;;;15.17;;
5543;SDS011;2795;47.652;13.128;2022-12-18T09:00:07;61.13;;;16.70;;
5543;SDS011;2795;47.652;13.128;2022-12-18T09:02:35;21.73;;;8.67;;
5543;SDS011;2795;47.652;13.128;2022-12-18T09:05:02;15.83;;;6.30;;
5543;SDS011;2795;47.652;13.128;2022-12-18T09:07:30;23.70;;;7.97;;
5543;SDS011;2795;47.652;13.128;2022-12-18T09:09:58;31.80;;;9.30;;
5543;SDS011;2795;47.652;13.128;2022-12-18T09:12:26;14.93;;;5.83;;
5543;SDS011;2795;47.652;13.128;2022-12-18T09:14:54;16.10;;;6.07;;
5543;SDS011;2795;47.652;13.128;2022-12-18T09:17:22;10.80;;;5.33;;
5543;SDS011;2795;47.652;13.128;2022-12-18T09:19:50;10.37;;;5.23;;
5543;SDS011;2795;47.652;13.128;2022-12-18T09:22:17;21.27;;;7.83;;
5543;SDS011;2795;47.652;13.128;2022-12-18T09:24:45;18.70;;;7.13;;
5543;SDS011;2795;47.652;13.128;2022-12-18T09:27:13;16.33;;;6.00;;
5543;SDS011;2795;47.652;13.128;2022-12-18T09:29:43;16.27;;;6.97;;
5543;SDS011;2795;47.652;13.128;2022-12-18T09:32:13;12.03;;;5.63;;
5543;SDS011;2795;47.652;13.128;2022-12-18T09:34:47;19.73;;;7.43;;
5543;SDS011;2795;47.652;13.128;2022-12-18T09:37:14;26.87;;;7.57;;
5543;SDS011;2795;47.652;13.128;2022-12-18T09:39:47;28.13;;;8.37;;
5543;SDS011;2795;47.652;13.128;2022-12-18T09:42:21;22.07;;;8.33;;
5543;SDS011;2795;47.652;13.128;2022-12-18T09:44:53;10.50;;;5.17;;
5543;SDS011;2795;47.652;13.128;2022-12-18T09:49:51;13.20;;;6.20;;
5543;SDS011;2795;47.652;13.128;2022-12-18T09:52:24;17.07;;;6.00;;
5543;SDS011;2795;47.652;13.128;2022-12-18T09:55:02;27.30;;;9.40;;
5543;SDS011;2795;47.652;13.128;2022-12-18T09:57:34;21.20;;;8.77;;
5543;SDS011;2795;47.652;13.128;2022-12-18T10:00:16;15.73;;;6.43;;
5543;SDS011;2795;47.652;13.128;2022-12-18T10:02:46;18.37;;;5.47;;
5543;SDS011;2795;47.652;13.128;2022-12-18T10:05:19;26.20;;;12.17;;
5543;SDS011;2795;47.652;13.128;2022-12-18T10:07:55;36.13;;;17.77;;
5543;SDS011;2795;47.652;13.128;2022-12-18T10:19:18;32.07;;;15.17;;
5543;SDS011;2795;47.652;13.128;2022-12-18T10:27:14;40.87;;;13.67;;
5543;SDS011;2795;47.652;13.128;2022-12-18T10:29:45;35.30;;;13.73;;
5543;SDS011;2795;47.652;13.128;2022-12-18T10:32:18;34.60;;;13.80;;
5543;SDS011;2795;47.652;13.128;2022-12-18T10:34:47;33.30;;;13.50;;
5543;SDS011;2795;47.652;13.128;2022-12-18T10:37:16;34.43;;;14.67;;
5543;SDS011;2795;47.652;13.128;2022-12-18T10:39:46;36.60;;;16.23;;
5543;SDS011;2795;47.652;13.128;2022-12-18T10:43:11;29.13;;;11.70;;
5543;SDS011;2795;47.652;13.128;2022-12-18T10:45:40;33.40;;;14.73;;
5543;SDS011;2795;47.652;13.128;2022-12-18T10:48:21;32.03;;;13.40;;
5543;SDS011;2795;47.652;13.128;2022-12-18T10:50:49;35.37;;;13.87;;
5543;SDS011;2795;47.652;13.128;2022-12-18T10:53:40;38.03;;;14.00;;
5543;SDS011;2795;47.652;13.128;2022-12-18T10:56:09;33.03;;;13.27;;
5543;SDS011;2795;47.652;13.128;2022-12-18T10:58:37;26.40;;;11.63;;
5543;SDS011;2795;47.652;13.128;2022-12-18T11:01:10;31.00;;;14.10;;
5543;SDS011;2795;47.652;13.128;2022-12-18T11:06:33;33.70;;;12.77;;
5543;SDS011;2795;47.652;13.128;2022-12-18T11:09:06;37.80;;;12.97;;
5543;SDS011;2795;47.652;13.128;2022-12-18T11:11:56;37.87;;;12.77;;
5543;SDS011;2795;47.652;13.128;2022-12-18T11:14:34;36.27;;;13.27;;
5543;SDS011;2795;47.652;13.128;2022-12-18T11:17:19;36.67;;;13.53;;
5543;SDS011;2795;47.652;13.128;2022-12-18T11:19:52;32.53;;;13.17;;
5543;SDS011;2795;47.652;13.128;2022-12-18T11:22:24;27.30;;;12.07;;
5543;SDS011;2795;47.652;13.128;2022-12-18T11:27:51;33.87;;;14.27;;
5543;SDS011;2795;47.652;13.128;2022-12-18T11:30:27;35.10;;;14.27;;
5543;SDS011;2795;47.652;13.128;2022-12-18T11:36:02;35.43;;;12.97;;
5543;SDS011;2795;47.652;13.128;2022-12-18T11:38:42;41.07;;;14.23;;
5543;SDS011;2795;47.652;13.128;2022-12-18T11:43:54;31.47;;;13.47;;
5543;SDS011;2795;47.652;13.128;2022-12-18T11:52:23;32.50;;;12.97;;
5543;SDS011;2795;47.652;13.128;2022-12-18T11:54:36;34.87;;;13.70;;
5543;SDS011;2795;47.652;13.128;2022-12-18T12:00:28;42.30;;;13.33;;
5543;SDS011;2795;47.652;13.128;2022-12-18T12:11:05;35.53;;;14.80;;
5543;SDS011;2795;47.652;13.128;2022-12-18T12:14:01;38.03;;;15.07;;
5543;SDS011;2795;47.652;13.128;2022-12-18T12:17:03;37.53;;;14.60;;
5543;SDS011;2795;47.652;13.128;2022-12-18T12:22:34;38.50;;;15.70;;
5543;SDS011;2795;47.652;13.128;2022-12-18T12:27:53;37.37;;;14.90;;
5543;SDS011;2795;47.652;13.128;2022-12-18T12:39:28;32.80;;;13.27;;
5543;SDS011;2795;47.652;13.128;2022-12-18T12:42:04;39.83;;;15.00;;
5543;SDS011;2795;47.652;13.128;2022-12-18T12:44:59;26.03;;;13.07;;
5543;SDS011;2795;47.652;13.128;2022-12-18T12:47:30;34.13;;;13.90;;
5543;SDS011;2795;47.652;13.128;2022-12-18T12:50:01;33.93;;;13.50;;
5543;SDS011;2795;47.652;13.128;2022-12-18T12:52:35;32.80;;;14.10;;
5543;SDS011;2795;47.652;13.128;2022-12-18T12:55:07;39.13;;;13.10;;
5543;SDS011;2795;47.652;13.128;2022-12-18T12:57:50;34.50;;;13.93;;
5543;SDS011;2795;47.652;13.128;2022-12-18T13:00:24;39.13;;;15.37;;
5543;SDS011;2795;47.652;13.128;2022-12-18T13:05:31;37.80;;;15.60;;
5543;SDS011;2795;47.652;13.128;2022-12-18T13:08:06;38.97;;;15.17;;
5543;SDS011;2795;47.652;13.128;2022-12-18T13:10:40;44.77;;;15.90;;
5543;SDS011;2795;47.652;13.128;2022-12-18T13:13:11;40.27;;;17.40;;
5543;SDS011;2795;47.652;13.128;2022-12-18T13:15:58;43.80;;;17.73;;
5543;SDS011;2795;47.652;13.128;2022-12-18T13:18:35;39.77;;;16.37;;
5543;SDS011;2795;47.652;13.128;2022-12-18T13:21:17;50.47;;;17.87;;
5543;SDS011;2795;47.652;13.128;2022-12-18T13:23:55;42.23;;;17.90;;
5543;SDS011;2795;47.652;13.128;2022-12-18T13:28:57;43.53;;;16.60;;
5543;SDS011;2795;47.652;13.128;2022-12-18T13:34:21;43.63;;;17.90;;
5543;SDS011;2795;47.652;13.128;2022-12-18T13:36:55;34.20;;;16.00;;
5543;SDS011;2795;47.652;13.128;2022-12-18T13:40:00;38.93;;;16.47;;
5543;SDS011;2795;47.652;13.128;2022-12-18T13:42:37;49.63;;;18.00;;
5543;SDS011;2795;47.652;13.128;2022-12-18T13:45:36;45.33;;;18.40;;
5543;SDS011;2795;47.652;13.128;2022-12-18T13:48:15;53.40;;;18.47;;
5543;SDS011;2795;47.652;13.128;2022-12-18T13:50:49;46.63;;;18.00;;
5543;SDS011;2795;47.652;13.128;2022-12-18T13:53:21;44.50;;;17.50;;
5543;SDS011;2795;47.652;13.128;2022-12-18T13:55:52;40.53;;;16.60;;
5543;SDS011;2795;47.652;13.128;2022-12-18T13:58:19;40.50;;;17.50;;
5543;SDS011;2795;47.652;13.128;2022-12-18T14:00:46;44.07;;;16.97;;
5543;SDS011;2795;47.652;13.128;2022-12-18T14:03:18;37.80;;;16.67;;
5543;SDS011;2795;47.652;13.128;2022-12-18T14:06:13;48.10;;;16.53;;
5543;SDS011;2795;47.652;13.128;2022-12-18T14:08:42;49.47;;;18.97;;
5543;SDS011;2795;47.652;13.128;2022-12-18T14:11:20;44.20;;;17.10;;
5543;SDS011;2795;47.652;13.128;2022-12-18T14:13:51;53.90;;;18.57;;
5543;SDS011;2795;47.652;13.128;2022-12-18T14:16:20;44.07;;;17.10;;
5543;SDS011;2795;47.652;13.128;2022-12-18T14:18:56;46.93;;;18.80;;
5543;SDS011;2795;47.652;13.128;2022-12-18T14:21:40;50.60;;;18.80;;
5543;SDS011;2795;47.652;13.128;2022-12-18T14:26:48;50.07;;;17.37;;
5543;SDS011;2795;47.652;13.128;2022-12-18T14:29:27;42.03;;;16.70;;
5543;SDS011;2795;47.652;13.128;2022-12-18T14:32:12;43.73;;;17.53;;
5543;SDS011;2795;47.652;13.128;2022-12-18T14:34:45;50.67;;;17.13;;
5543;SDS011;2795;47.652;13.128;2022-12-18T14:37:16;44.50;;;18.37;;
5543;SDS011;2795;47.652;13.128;2022-12-18T14:39:56;56.70;;;20.40;;
5543;SDS011;2795;47.652;13.128;2022-12-18T14:42:36;70.17;;;24.70;;
5543;SDS011;2795;47.652;13.128;2022-12-18T14:53:39;50.20;;;18.53;;
5543;SDS011;2795;47.652;13.128;2022-12-18T14:56:18;44.73;;;16.53;;
5543;SDS011;2795;47.652;13.128;2022-12-18T14:58:50;45.80;;;18.10;;
5543;SDS011;2795;47.652;13.128;2022-12-18T15:01:38;56.10;;;20.37;;
5543;SDS011;2795;47.652;13.128;2022-12-18T15:04:25;53.33;;;16.13;;
5543;SDS011;2795;47.652;13.128;2022-12-18T15:07:09;38.93;;;15.90;;
5543;SDS011;2795;47.652;13.128;2022-12-18T15:12:22;58.40;;;16.63;;
5543;SDS011;2795;47.652;13.128;2022-12-18T15:14:54;37.80;;;17.00;;
5543;SDS011;2795;47.652;13.128;2022-12-18T15:17:23;42.17;;;16.70;;
5543;SDS011;2795;47.652;13.128;2022-12-18T15:19:52;36.23;;;15.97;;
5543;SDS011;2795;47.652;13.128;2022-12-18T15:22:22;40.07;;;17.47;;
5543;SDS011;2795;47.652;13.128;2022-12-18T15:24:58;37.33;;;14.70;;
5543;SDS011;2795;47.652;13.128;2022-12-18T15:32:38;45.27;;;17.77;;
5543;SDS011;2795;47.652;13.128;2022-12-18T15:35:24;35.63;;;16.10;;
5543;SDS011;2795;47.652;13.128;2022-12-18T15:37:53;48.87;;;19.80;;
5543;SDS011;2795;47.652;13.128;2022-12-18T15:40:21;45.77;;;18.40;;
5543;SDS011;2795;47.652;13.128;2022-12-18T15:42:52;37.60;;;17.23;;
5543;SDS011;2795;47.652;13.128;2022-12-18T15:45:41;52.93;;;19.13;;
5543;SDS011;2795;47.652;13.128;2022-12-18T15:48:18;47.93;;;18.50;;
5543;SDS011;2795;47.652;13.128;2022-12-18T15:50:50;41.47;;;16.30;;
5543;SDS011;2795;47.652;13.128;2022-12-18T15:53:17;37.03;;;15.10;;
5543;SDS011;2795;47.652;13.128;2022-12-18T15:55:46;35.87;;;14.40;;
5543;SDS011;2795;47.652;13.128;2022-12-18T15:58:32;42.63;;;15.73;;
5543;SDS011;2795;47.652;13.128;2022-12-18T16:01:00;42.90;;;16.10;;
5543;SDS011;2795;47.652;13.128;2022-12-18T16:03:27;50.57;;;17.13;;
5543;SDS011;2795;47.652;13.128;2022-12-18T16:05:54;42.70;;;16.63;;
5543;SDS011;2795;47.652;13.128;2022-12-18T16:08:25;40.33;;;17.23;;
5543;SDS011;2795;47.652;13.128;2022-12-18T16:10:53;38.83;;;16.77;;
5543;SDS011;2795;47.652;13.128;2022-12-18T16:13:21;48.90;;;17.80;;
5543;SDS011;2795;47.652;13.128;2022-12-18T16:15:48;43.10;;;19.00;;
5543;SDS011;2795;47.652;13.128;2022-12-18T16:18:15;36.93;;;17.80;;
5543;SDS011;2795;47.652;13.128;2022-12-18T16:20:42;52.53;;;20.00;;
5543;SDS011;2795;47.652;13.128;2022-12-18T16:23:09;46.37;;;17.17;;
5543;SDS011;2795;47.652;13.128;2022-12-18T16:25:37;44.10;;;18.20;;
5543;SDS011;2795;47.652;13.128;2022-12-18T16:28:04;49.53;;;19.10;;
5543;SDS011;2795;47.652;13.128;2022-12-18T16:30:33;50.40;;;18.20;;
5543;SDS011;2795;47.652;13.128;2022-12-18T16:33:03;40.03;;;17.33;;
5543;SDS011;2795;47.652;13.128;2022-12-18T16:35:33;44.90;;;17.67;;
5543;SDS011;2795;47.652;13.128;2022-12-18T16:38:03;50.17;;;18.10;;
5543;SDS011;2795;47.652;13.128;2022-12-18T16:40:31;50.57;;;20.23;;
5543;SDS011;2795;47.652;13.128;2022-12-18T16:42:59;43.93;;;18.17;;
5543;SDS011;2795;47.652;13.128;2022-12-18T16:45:27;47.13;;;18.90;;
5543;SDS011;2795;47.652;13.128;2022-12-18T16:48:01;50.23;;;19.40;;
5543;SDS011;2795;47.652;13.128;2022-12-18T16:50:28;50.77;;;19.00;;
5543;SDS011;2795;47.652;13.128;2022-12-18T16:52:55;36.00;;;16.27;;
5543;SDS011;2795;47.652;13.128;2022-12-18T16:55:22;38.77;;;16.40;;
5543;SDS011;2795;47.652;13.128;2022-12-18T16:57:50;31.53;;;14.87;;
5543;SDS011;2795;47.652;13.128;2022-12-18T17:00:21;38.33;;;16.30;;
5543;SDS011;2795;47.652;13.128;2022-12-18T17:02:50;45.67;;;16.30;;
5543;SDS011;2795;47.652;13.128;2022-12-18T17:05:20;38.07;;;15.90;;